sensor_id;sensor_type;location;lat;lon;timestamp;P1;durP1;ratioP1;P2;durP2;ratioP2
9445;SDS011;4761;49.490;10.908;2023-07-29T00:01:22;0.93;;;0.93;;
9445;SDS011;4761;49.490;10.908;2023-07-29T00:03:47;1.20;;;1.10;;
9445;SDS011;4761;49.490;10.908;2023-07-29T00:06:13;1.15;;;1.05;;
9445;SDS011;4761;49.490;10.908;2023-07-29T00:08:38;1.13;;;0.98;;
9445;SDS011;4761;49.490;10.908;2023-07-29T00:11:04;0.95;;;0.95;;
9445;SDS011;4761;49.490;10.908;2023-07-29T00:13:30;1.20;;;1.10;;
9445;SDS011;4761;49.490;10.908;2023-07-29T00:16:00;1.00;;;0.98;;
9445;SDS011;4761;49.490;10.908;2023-07-29T00:18:25;0.90;;;0.80;;
9445;SDS011;4761;49.490;10.908;2023-07-29T00:20:52;0.88;;;0.88;;
9445;SDS011;4761;49.490;10.908;2023-07-29T00:23:18;0.95;;;0.95;;
9445;SDS011;4761;49.490;10.908;2023-07-29T00:25:46;0.80;;;0.80;;
9445;SDS011;4761;49.490;10.908;2023-07-29T00:28:12;1.00;;;0.90;;
9445;SDS011;4761;49.490;10.908;2023-07-29T00:30:38;1.00;;;1.00;;
9445;SDS011;4761;49.490;10.908;2023-07-29T00:33:03;0.88;;;0.88;;
9445;SDS011;4761;49.490;10.908;2023-07-29T00:35:29;0.90;;;0.90;;
9445;SDS011;4761;49.490;10.908;2023-07-29T00:37:54;0.98;;;0.98;;
9445;SDS011;4761;49.490;10.908;2023-07-29T00:40:20;0.85;;;0.85;;
9445;SDS011;4761;49.490;10.908;2023-07-29T00:42:47;0.90;;;0.90;;
9445;SDS011;4761;49.490;10.908;2023-07-29T00:45:13;0.90;;;0.90;;
9445;SDS011;4761;49.490;10.908;2023-07-29T00:47:39;1.10;;;1.00;;
9445;SDS011;4761;49.490;10.908;2023-07-29T00:50:05;1.20;;;1.10;;
9445;SDS011;4761;49.490;10.908;2023-07-29T00:52:31;1.30;;;1.02;;
9445;SDS011;4761;49.490;10.908;2023-07-29T00:54:57;0.70;;;0.70;;
9445;SDS011;4761;49.490;10.908;2023-07-29T00:57:23;1.10;;;1.00;;
9445;SDS011;4761;49.490;10.908;2023-07-29T00:59:50;1.25;;;1.00;;
9445;SDS011;4761;49.490;10.908;2023-07-29T01:02:16;1.10;;;1.10;;
9445;SDS011;4761;49.490;10.908;2023-07-29T01:04:42;1.15;;;1.05;;
9445;SDS011;4761;49.490;10.908;2023-07-29T01:10:27;0.98;;;0.98;;
9445;SDS011;4761;49.490;10.908;2023-07-29T01:16:09;0.93;;;0.93;;
9445;SDS011;4761;49.490;10.908;2023-07-29T01:18:26;0.90;;;0.90;;
9445;SDS011;4761;49.490;10.908;2023-07-29T01:20:54;0.93;;;0.93;;
9445;SDS011;4761;49.490;10.908;2023-07-29T01:23:29;0.90;;;0.90;;
9445;SDS011;4761;49.490;10.908;2023-07-29T01:25:56;1.00;;;1.00;;
9445;SDS011;4761;49.490;10.908;2023-07-29T01:28:21;0.95;;;0.95;;
9445;SDS011;4761;49.490;10.908;2023-07-29T01:30:48;0.80;;;0.80;;
9445;SDS011;4761;49.490;10.908;2023-07-29T01:33:17;0.80;;;0.80;;
9445;SDS011;4761;49.490;10.908;2023-07-29T01:35:50;0.95;;;0.95;;
9445;SDS011;4761;49.490;10.908;2023-07-29T01:38:19;0.93;;;0.93;;
9445;SDS011;4761;49.490;10.908;2023-07-29T01:40:49;1.27;;;1.17;;
9445;SDS011;4761;49.490;10.908;2023-07-29T01:43:16;0.82;;;0.82;;
9445;SDS011;4761;49.490;10.908;2023-07-29T01:45:44;2.03;;;0.90;;
9445;SDS011;4761;49.490;10.908;2023-07-29T01:48:09;0.90;;;0.90;;
9445;SDS011;4761;49.490;10.908;2023-07-29T01:50:35;0.88;;;0.82;;
9445;SDS011;4761;49.490;10.908;2023-07-29T01:53:00;0.93;;;0.93;;
9445;SDS011;4761;49.490;10.908;2023-07-29T01:55:26;0.90;;;0.90;;
9445;SDS011;4761;49.490;10.908;2023-07-29T01:57:51;1.00;;;1.00;;
9445;SDS011;4761;49.490;10.908;2023-07-29T02:00:20;0.90;;;0.90;;
9445;SDS011;4761;49.490;10.908;2023-07-29T02:02:46;0.90;;;0.90;;
9445;SDS011;4761;49.490;10.908;2023-07-29T02:05:12;0.93;;;0.90;;
9445;SDS011;4761;49.490;10.908;2023-07-29T02:07:37;1.10;;;1.10;;
9445;SDS011;4761;49.490;10.908;2023-07-29T02:10:03;1.00;;;1.00;;
9445;SDS011;4761;49.490;10.908;2023-07-29T02:12:29;1.15;;;1.08;;
9445;SDS011;4761;49.490;10.908;2023-07-29T02:14:54;0.90;;;0.90;;
9445;SDS011;4761;49.490;10.908;2023-07-29T02:17:20;1.13;;;0.90;;
9445;SDS011;4761;49.490;10.908;2023-07-29T02:19:46;1.23;;;1.13;;
9445;SDS011;4761;49.490;10.908;2023-07-29T02:22:15;1.25;;;0.80;;
9445;SDS011;4761;49.490;10.908;2023-07-29T02:24:41;1.20;;;1.10;;
9445;SDS011;4761;49.490;10.908;2023-07-29T02:27:07;1.17;;;1.08;;
9445;SDS011;4761;49.490;10.908;2023-07-29T02:29:33;1.00;;;0.90;;
9445;SDS011;4761;49.490;10.908;2023-07-29T02:31:59;1.10;;;1.02;;
9445;SDS011;4761;49.490;10.908;2023-07-29T02:34:25;1.35;;;1.08;;
9445;SDS011;4761;49.490;10.908;2023-07-29T02:36:50;1.20;;;1.00;;
9445;SDS011;4761;49.490;10.908;2023-07-29T02:39:16;1.10;;;1.10;;
9445;SDS011;4761;49.490;10.908;2023-07-29T02:41:41;1.00;;;1.00;;
9445;SDS011;4761;49.490;10.908;2023-07-29T02:44:07;0.90;;;0.90;;
9445;SDS011;4761;49.490;10.908;2023-07-29T02:46:33;1.20;;;1.10;;
9445;SDS011;4761;49.490;10.908;2023-07-29T02:48:58;1.30;;;1.20;;
9445;SDS011;4761;49.490;10.908;2023-07-29T02:51:24;0.98;;;0.98;;
9445;SDS011;4761;49.490;10.908;2023-07-29T02:53:49;2.35;;;1.20;;
9445;SDS011;4761;49.490;10.908;2023-07-29T02:56:15;1.30;;;1.20;;
9445;SDS011;4761;49.490;10.908;2023-07-29T02:58:41;1.13;;;1.10;;
9445;SDS011;4761;49.490;10.908;2023-07-29T03:01:06;1.30;;;1.20;;
9445;SDS011;4761;49.490;10.908;2023-07-29T03:03:32;1.27;;;1.17;;
9445;SDS011;4761;49.490;10.908;2023-07-29T03:05:59;1.20;;;1.10;;
9445;SDS011;4761;49.490;10.908;2023-07-29T03:08:24;1.52;;;1.20;;
9445;SDS011;4761;49.490;10.908;2023-07-29T03:10:50;1.08;;;0.98;;
9445;SDS011;4761;49.490;10.908;2023-07-29T03:13:15;1.13;;;1.02;;
9445;SDS011;4761;49.490;10.908;2023-07-29T03:15:40;0.90;;;0.90;;
9445;SDS011;4761;49.490;10.908;2023-07-29T03:18:06;1.05;;;1.02;;
9445;SDS011;4761;49.490;10.908;2023-07-29T03:20:31;1.35;;;1.00;;
9445;SDS011;4761;49.490;10.908;2023-07-29T03:22:57;1.30;;;1.20;;
9445;SDS011;4761;49.490;10.908;2023-07-29T03:25:22;0.90;;;0.90;;
9445;SDS011;4761;49.490;10.908;2023-07-29T03:27:48;1.30;;;1.20;;
9445;SDS011;4761;49.490;10.908;2023-07-29T03:30:14;1.23;;;1.13;;
9445;SDS011;4761;49.490;10.908;2023-07-29T03:32:42;1.10;;;1.00;;
9445;SDS011;4761;49.490;10.908;2023-07-29T03:35:10;1.20;;;1.10;;
9445;SDS011;4761;49.490;10.908;2023-07-29T03:37:36;0.90;;;0.90;;
9445;SDS011;4761;49.490;10.908;2023-07-29T03:40:01;1.00;;;1.00;;
9445;SDS011;4761;49.490;10.908;2023-07-29T03:42:28;1.20;;;1.10;;
9445;SDS011;4761;49.490;10.908;2023-07-29T03:44:53;1.27;;;1.10;;
9445;SDS011;4761;49.490;10.908;2023-07-29T03:47:19;1.40;;;1.30;;
9445;SDS011;4761;49.490;10.908;2023-07-29T03:49:44;1.35;;;1.25;;
9445;SDS011;4761;49.490;10.908;2023-07-29T03:52:10;1.30;;;1.20;;
9445;SDS011;4761;49.490;10.908;2023-07-29T03:54:35;1.17;;;1.10;;
9445;SDS011;4761;49.490;10.908;2023-07-29T03:57:01;1.15;;;1.10;;
9445;SDS011;4761;49.490;10.908;2023-07-29T03:59:26;1.00;;;1.00;;
9445;SDS011;4761;49.490;10.908;2023-07-29T04:01:52;1.25;;;1.15;;
9445;SDS011;4761;49.490;10.908;2023-07-29T04:04:17;1.38;;;1.15;;
9445;SDS011;4761;49.490;10.908;2023-07-29T04:06:43;1.60;;;1.50;;
9445;SDS011;4761;49.490;10.908;2023-07-29T04:09:08;1.30;;;1.20;;
9445;SDS011;4761;49.490;10.908;2023-07-29T04:11:34;2.50;;;1.60;;
9445;SDS011;4761;49.490;10.908;2023-07-29T04:13:59;2.55;;;1.10;;
9445;SDS011;4761;49.490;10.908;2023-07-29T04:16:25;1.42;;;1.33;;
9445;SDS011;4761;49.490;10.908;2023-07-29T04:18:51;1.10;;;1.10;;
9445;SDS011;4761;49.490;10.908;2023-07-29T04:21:16;1.20;;;1.10;;
9445;SDS011;4761;49.490;10.908;2023-07-29T04:23:42;1.25;;;1.15;;
9445;SDS011;4761;49.490;10.908;2023-07-29T04:26:07;1.30;;;1.20;;
9445;SDS011;4761;49.490;10.908;2023-07-29T04:28:33;2.40;;;1.40;;
9445;SDS011;4761;49.490;10.908;2023-07-29T04:30:58;1.33;;;1.23;;
9445;SDS011;4761;49.490;10.908;2023-07-29T04:33:24;1.08;;;1.08;;
9445;SDS011;4761;49.490;10.908;2023-07-29T04:35:50;2.90;;;1.20;;
9445;SDS011;4761;49.490;10.908;2023-07-29T04:38:15;1.40;;;1.30;;
9445;SDS011;4761;49.490;10.908;2023-07-29T04:40:41;2.33;;;1.30;;
9445;SDS011;4761;49.490;10.908;2023-07-29T04:43:06;1.30;;;1.20;;
9445;SDS011;4761;49.490;10.908;2023-07-29T04:45:32;1.40;;;1.30;;
9445;SDS011;4761;49.490;10.908;2023-07-29T04:47:58;1.00;;;1.00;;
9445;SDS011;4761;49.490;10.908;2023-07-29T04:50:24;1.40;;;1.30;;
9445;SDS011;4761;49.490;10.908;2023-07-29T04:52:49;1.50;;;1.40;;
9445;SDS011;4761;49.490;10.908;2023-07-29T04:55:15;1.48;;;1.38;;
9445;SDS011;4761;49.490;10.908;2023-07-29T04:57:40;1.40;;;1.30;;
9445;SDS011;4761;49.490;10.908;2023-07-29T05:00:06;1.25;;;1.15;;
9445;SDS011;4761;49.490;10.908;2023-07-29T05:02:32;1.42;;;1.27;;
9445;SDS011;4761;49.490;10.908;2023-07-29T05:04:57;1.10;;;1.10;;
9445;SDS011;4761;49.490;10.908;2023-07-29T05:07:23;1.40;;;1.30;;
9445;SDS011;4761;49.490;10.908;2023-07-29T05:09:49;1.52;;;1.42;;
9445;SDS011;4761;49.490;10.908;2023-07-29T05:12:14;1.60;;;1.50;;
9445;SDS011;4761;49.490;10.908;2023-07-29T05:14:40;1.48;;;1.38;;
9445;SDS011;4761;49.490;10.908;2023-07-29T05:17:05;1.30;;;1.20;;
9445;SDS011;4761;49.490;10.908;2023-07-29T05:19:31;1.67;;;1.58;;
9445;SDS011;4761;49.490;10.908;2023-07-29T05:21:56;1.50;;;1.40;;
9445;SDS011;4761;49.490;10.908;2023-07-29T05:24:23;1.42;;;1.30;;
9445;SDS011;4761;49.490;10.908;2023-07-29T05:26:49;1.35;;;1.25;;
9445;SDS011;4761;49.490;10.908;2023-07-29T05:29:14;2.45;;;1.50;;
9445;SDS011;4761;49.490;10.908;2023-07-29T05:31:40;1.40;;;1.30;;
9445;SDS011;4761;49.490;10.908;2023-07-29T05:34:06;1.55;;;1.45;;
9445;SDS011;4761;49.490;10.908;2023-07-29T05:36:31;1.55;;;1.45;;
9445;SDS011;4761;49.490;10.908;2023-07-29T05:38:57;1.35;;;1.25;;
9445;SDS011;4761;49.490;10.908;2023-07-29T05:41:23;1.40;;;1.30;;
9445;SDS011;4761;49.490;10.908;2023-07-29T05:43:49;1.70;;;1.52;;
9445;SDS011;4761;49.490;10.908;2023-07-29T05:46:14;1.10;;;1.10;;
9445;SDS011;4761;49.490;10.908;2023-07-29T05:48:40;1.20;;;1.20;;
9445;SDS011;4761;49.490;10.908;2023-07-29T05:51:05;1.15;;;1.02;;
9445;SDS011;4761;49.490;10.908;2023-07-29T05:53:31;1.33;;;1.20;;
9445;SDS011;4761;49.490;10.908;2023-07-29T05:55:56;1.88;;;1.27;;
9445;SDS011;4761;49.490;10.908;2023-07-29T05:58:22;1.40;;;1.30;;
9445;SDS011;4761;49.490;10.908;2023-07-29T06:00:47;1.33;;;1.23;;
9445;SDS011;4761;49.490;10.908;2023-07-29T06:03:13;1.40;;;1.30;;
9445;SDS011;4761;49.490;10.908;2023-07-29T06:05:39;1.50;;;1.40;;
9445;SDS011;4761;49.490;10.908;2023-07-29T06:08:04;1.52;;;1.42;;
9445;SDS011;4761;49.490;10.908;2023-07-29T06:10:30;1.50;;;1.40;;
9445;SDS011;4761;49.490;10.908;2023-07-29T06:12:55;1.40;;;1.30;;
9445;SDS011;4761;49.490;10.908;2023-07-29T06:15:21;1.40;;;1.30;;
9445;SDS011;4761;49.490;10.908;2023-07-29T06:17:47;1.20;;;1.10;;
9445;SDS011;4761;49.490;10.908;2023-07-29T06:20:13;1.38;;;1.27;;
9445;SDS011;4761;49.490;10.908;2023-07-29T06:22:39;1.40;;;1.30;;
9445;SDS011;4761;49.490;10.908;2023-07-29T06:25:04;1.08;;;1.08;;
9445;SDS011;4761;49.490;10.908;2023-07-29T06:27:30;1.05;;;1.05;;
9445;SDS011;4761;49.490;10.908;2023-07-29T06:29:55;1.20;;;1.10;;
9445;SDS011;4761;49.490;10.908;2023-07-29T06:32:21;1.08;;;1.08;;
9445;SDS011;4761;49.490;10.908;2023-07-29T06:34:46;1.20;;;1.10;;
9445;SDS011;4761;49.490;10.908;2023-07-29T06:37:12;1.30;;;1.20;;
9445;SDS011;4761;49.490;10.908;2023-07-29T06:39:37;2.45;;;1.30;;
9445;SDS011;4761;49.490;10.908;2023-07-29T06:42:03;1.20;;;1.10;;
9445;SDS011;4761;49.490;10.908;2023-07-29T06:44:28;2.17;;;1.30;;
9445;SDS011;4761;49.490;10.908;2023-07-29T06:46:54;1.33;;;1.23;;
9445;SDS011;4761;49.490;10.908;2023-07-29T06:49:19;1.77;;;1.20;;
9445;SDS011;4761;49.490;10.908;2023-07-29T06:51:45;1.27;;;1.17;;
9445;SDS011;4761;49.490;10.908;2023-07-29T06:54:10;1.20;;;1.10;;
9445;SDS011;4761;49.490;10.908;2023-07-29T06:56:36;1.63;;;1.50;;
9445;SDS011;4761;49.490;10.908;2023-07-29T06:59:02;2.53;;;1.33;;
9445;SDS011;4761;49.490;10.908;2023-07-29T07:01:27;1.92;;;1.30;;
9445;SDS011;4761;49.490;10.908;2023-07-29T07:03:53;1.77;;;1.40;;
9445;SDS011;4761;49.490;10.908;2023-07-29T07:06:20;1.58;;;1.40;;
9445;SDS011;4761;49.490;10.908;2023-07-29T07:08:46;1.70;;;1.30;;
9445;SDS011;4761;49.490;10.908;2023-07-29T07:11:12;1.35;;;1.23;;
9445;SDS011;4761;49.490;10.908;2023-07-29T07:13:37;1.95;;;1.30;;
9445;SDS011;4761;49.490;10.908;2023-07-29T07:16:03;1.83;;;1.20;;
9445;SDS011;4761;49.490;10.908;2023-07-29T07:18:28;1.83;;;1.30;;
9445;SDS011;4761;49.490;10.908;2023-07-29T07:20:54;1.45;;;1.35;;
9445;SDS011;4761;49.490;10.908;2023-07-29T07:23:20;2.13;;;1.20;;
9445;SDS011;4761;49.490;10.908;2023-07-29T07:25:45;1.30;;;1.20;;
9445;SDS011;4761;49.490;10.908;2023-07-29T07:28:11;3.08;;;1.42;;
9445;SDS011;4761;49.490;10.908;2023-07-29T07:30:40;1.70;;;1.15;;
9445;SDS011;4761;49.490;10.908;2023-07-29T07:33:09;2.30;;;1.40;;
9445;SDS011;4761;49.490;10.908;2023-07-29T07:35:34;1.20;;;1.10;;
9445;SDS011;4761;49.490;10.908;2023-07-29T07:38:03;1.95;;;0.98;;
9445;SDS011;4761;49.490;10.908;2023-07-29T07:40:30;1.45;;;1.30;;
9445;SDS011;4761;49.490;10.908;2023-07-29T07:42:56;1.98;;;1.20;;
9445;SDS011;4761;49.490;10.908;2023-07-29T07:45:21;2.45;;;1.10;;
9445;SDS011;4761;49.490;10.908;2023-07-29T07:47:47;1.35;;;1.23;;
9445;SDS011;4761;49.490;10.908;2023-07-29T07:50:13;1.23;;;1.13;;
9445;SDS011;4761;49.490;10.908;2023-07-29T07:52:39;2.05;;;1.10;;
9445;SDS011;4761;49.490;10.908;2023-07-29T07:55:04;1.95;;;1.30;;
9445;SDS011;4761;49.490;10.908;2023-07-29T07:57:30;1.85;;;1.15;;
9445;SDS011;4761;49.490;10.908;2023-07-29T07:59:56;1.58;;;1.20;;
9445;SDS011;4761;49.490;10.908;2023-07-29T08:02:21;2.80;;;1.30;;
9445;SDS011;4761;49.490;10.908;2023-07-29T08:04:47;2.35;;;1.10;;
9445;SDS011;4761;49.490;10.908;2023-07-29T08:07:13;1.50;;;1.05;;
9445;SDS011;4761;49.490;10.908;2023-07-29T08:09:39;2.03;;;1.25;;
9445;SDS011;4761;49.490;10.908;2023-07-29T08:12:04;1.42;;;1.00;;
9445;SDS011;4761;49.490;10.908;2023-07-29T08:14:30;1.00;;;0.90;;
9445;SDS011;4761;49.490;10.908;2023-07-29T08:16:56;1.48;;;1.10;;
9445;SDS011;4761;49.490;10.908;2023-07-29T08:19:21;1.20;;;1.00;;
9445;SDS011;4761;49.490;10.908;2023-07-29T08:21:47;1.23;;;1.10;;
9445;SDS011;4761;49.490;10.908;2023-07-29T08:24:13;1.17;;;1.08;;
9445;SDS011;4761;49.490;10.908;2023-07-29T08:26:38;1.30;;;1.20;;
9445;SDS011;4761;49.490;10.908;2023-07-29T08:29:04;1.30;;;1.17;;
9445;SDS011;4761;49.490;10.908;2023-07-29T08:31:29;2.55;;;1.50;;
9445;SDS011;4761;49.490;10.908;2023-07-29T08:33:58;0.95;;;0.95;;
9445;SDS011;4761;49.490;10.908;2023-07-29T08:36:24;1.50;;;1.10;;
9445;SDS011;4761;49.490;10.908;2023-07-29T08:38:49;1.65;;;0.98;;
9445;SDS011;4761;49.490;10.908;2023-07-29T08:41:24;2.83;;;1.10;;
9445;SDS011;4761;49.490;10.908;2023-07-29T08:44:10;2.05;;;1.00;;
9445;SDS011;4761;49.490;10.908;2023-07-29T08:46:40;1.00;;;1.00;;
9445;SDS011;4761;49.490;10.908;2023-07-29T08:49:05;1.73;;;1.10;;
9445;SDS011;4761;49.490;10.908;2023-07-29T08:51:32;1.17;;;1.00;;
9445;SDS011;4761;49.490;10.908;2023-07-29T08:53:58;1.15;;;0.98;;
9445;SDS011;4761;49.490;10.908;2023-07-29T08:56:25;1.20;;;1.10;;
9445;SDS011;4761;49.490;10.908;2023-07-29T08:58:50;1.42;;;1.15;;
9445;SDS011;4761;49.490;10.908;2023-07-29T09:01:17;0.90;;;0.90;;
9445;SDS011;4761;49.490;10.908;2023-07-29T09:03:42;1.35;;;1.00;;
9445;SDS011;4761;49.490;10.908;2023-07-29T09:06:08;1.00;;;0.98;;
9445;SDS011;4761;49.490;10.908;2023-07-29T09:08:34;0.90;;;0.90;;
9445;SDS011;4761;49.490;10.908;2023-07-29T09:11:00;0.75;;;0.75;;
9445;SDS011;4761;49.490;10.908;2023-07-29T09:13:26;1.05;;;1.02;;
9445;SDS011;4761;49.490;10.908;2023-07-29T09:15:55;1.10;;;1.00;;
9445;SDS011;4761;49.490;10.908;2023-07-29T09:18:22;1.88;;;1.10;;
9445;SDS011;4761;49.490;10.908;2023-07-29T09:20:48;2.47;;;1.02;;
9445;SDS011;4761;49.490;10.908;2023-07-29T09:23:15;2.97;;;1.10;;
9445;SDS011;4761;49.490;10.908;2023-07-29T09:25:41;1.63;;;1.17;;
9445;SDS011;4761;49.490;10.908;2023-07-29T09:28:08;1.50;;;1.20;;
9445;SDS011;4761;49.490;10.908;2023-07-29T09:30:35;0.98;;;0.93;;
9445;SDS011;4761;49.490;10.908;2023-07-29T09:33:02;1.08;;;1.02;;
9445;SDS011;4761;49.490;10.908;2023-07-29T09:35:28;1.10;;;0.90;;
9445;SDS011;4761;49.490;10.908;2023-07-29T09:37:55;1.10;;;1.00;;
9445;SDS011;4761;49.490;10.908;2023-07-29T09:40:21;1.45;;;1.00;;
9445;SDS011;4761;49.490;10.908;2023-07-29T09:42:50;3.20;;;1.00;;
9445;SDS011;4761;49.490;10.908;2023-07-29T09:45:23;1.30;;;0.98;;
9445;SDS011;4761;49.490;10.908;2023-07-29T09:47:50;0.88;;;0.88;;
9445;SDS011;4761;49.490;10.908;2023-07-29T09:50:16;1.10;;;1.00;;
9445;SDS011;4761;49.490;10.908;2023-07-29T09:52:43;1.75;;;1.15;;
9445;SDS011;4761;49.490;10.908;2023-07-29T09:55:10;1.20;;;1.10;;
9445;SDS011;4761;49.490;10.908;2023-07-29T09:57:39;1.55;;;0.90;;
9445;SDS011;4761;49.490;10.908;2023-07-29T10:00:06;2.10;;;1.13;;
9445;SDS011;4761;49.490;10.908;2023-07-29T10:02:36;1.10;;;1.00;;
9445;SDS011;4761;49.490;10.908;2023-07-29T10:05:06;1.70;;;1.00;;
9445;SDS011;4761;49.490;10.908;2023-07-29T10:07:34;0.80;;;0.80;;
9445;SDS011;4761;49.490;10.908;2023-07-29T10:10:02;0.80;;;0.80;;
9445;SDS011;4761;49.490;10.908;2023-07-29T10:12:30;0.80;;;0.80;;
9445;SDS011;4761;49.490;10.908;2023-07-29T10:14:58;1.20;;;0.90;;
9445;SDS011;4761;49.490;10.908;2023-07-29T10:17:25;0.93;;;0.90;;
9445;SDS011;4761;49.490;10.908;2023-07-29T10:19:51;1.52;;;1.00;;
9445;SDS011;4761;49.490;10.908;2023-07-29T10:22:17;0.90;;;0.90;;
9445;SDS011;4761;49.490;10.908;2023-07-29T10:24:45;0.93;;;0.90;;
9445;SDS011;4761;49.490;10.908;2023-07-29T10:27:13;1.10;;;1.00;;
9445;SDS011;4761;49.490;10.908;2023-07-29T10:29:44;1.00;;;0.90;;
9445;SDS011;4761;49.490;10.908;2023-07-29T10:32:11;1.13;;;1.02;;
9445;SDS011;4761;49.490;10.908;2023-07-29T10:34:36;0.90;;;0.90;;
9445;SDS011;4761;49.490;10.908;2023-07-29T10:37:03;1.10;;;1.00;;
9445;SDS011;4761;49.490;10.908;2023-07-29T10:39:37;0.95;;;0.95;;
9445;SDS011;4761;49.490;10.908;2023-07-29T10:42:05;0.90;;;0.90;;
9445;SDS011;4761;49.490;10.908;2023-07-29T10:47:11;1.00;;;1.00;;
9445;SDS011;4761;49.490;10.908;2023-07-29T10:49:40;0.80;;;0.80;;
9445;SDS011;4761;49.490;10.908;2023-07-29T10:52:06;1.85;;;1.10;;
9445;SDS011;4761;49.490;10.908;2023-07-29T10:54:33;1.63;;;1.00;;
9445;SDS011;4761;49.490;10.908;2023-07-29T10:57:07;0.90;;;0.90;;
9445;SDS011;4761;49.490;10.908;2023-07-29T10:59:37;1.10;;;0.95;;
9445;SDS011;4761;49.490;10.908;2023-07-29T11:02:03;1.10;;;1.00;;
9445;SDS011;4761;49.490;10.908;2023-07-29T11:04:46;1.02;;;1.00;;
9445;SDS011;4761;49.490;10.908;2023-07-29T11:15:24;0.98;;;0.82;;
9445;SDS011;4761;49.490;10.908;2023-07-29T11:17:58;1.75;;;1.00;;
9445;SDS011;4761;49.490;10.908;2023-07-29T11:20:26;1.15;;;0.90;;
9445;SDS011;4761;49.490;10.908;2023-07-29T11:22:53;2.10;;;1.02;;
9445;SDS011;4761;49.490;10.908;2023-07-29T11:25:20;1.02;;;0.90;;
9445;SDS011;4761;49.490;10.908;2023-07-29T11:27:47;1.25;;;0.90;;
9445;SDS011;4761;49.490;10.908;2023-07-29T11:30:13;1.25;;;1.10;;
9445;SDS011;4761;49.490;10.908;2023-07-29T11:32:41;1.48;;;0.80;;
9445;SDS011;4761;49.490;10.908;2023-07-29T11:35:08;1.02;;;0.93;;
9445;SDS011;4761;49.490;10.908;2023-07-29T11:37:40;1.50;;;1.15;;
9445;SDS011;4761;49.490;10.908;2023-07-29T11:40:06;0.80;;;0.80;;
9445;SDS011;4761;49.490;10.908;2023-07-29T11:42:35;1.42;;;1.10;;
9445;SDS011;4761;49.490;10.908;2023-07-29T11:45:02;1.17;;;0.95;;
9445;SDS011;4761;49.490;10.908;2023-07-29T11:47:30;1.98;;;1.30;;
9445;SDS011;4761;49.490;10.908;2023-07-29T11:49:59;1.35;;;1.20;;
9445;SDS011;4761;49.490;10.908;2023-07-29T11:52:28;1.50;;;1.23;;
9445;SDS011;4761;49.490;10.908;2023-07-29T11:54:56;1.20;;;1.10;;
9445;SDS011;4761;49.490;10.908;2023-07-29T11:57:22;1.20;;;1.10;;
9445;SDS011;4761;49.490;10.908;2023-07-29T11:59:48;1.30;;;1.10;;
9445;SDS011;4761;49.490;10.908;2023-07-29T12:02:17;1.70;;;1.35;;
9445;SDS011;4761;49.490;10.908;2023-07-29T12:04:44;0.90;;;0.90;;
9445;SDS011;4761;49.490;10.908;2023-07-29T12:07:12;1.10;;;1.00;;
9445;SDS011;4761;49.490;10.908;2023-07-29T12:09:39;1.20;;;1.10;;
9445;SDS011;4761;49.490;10.908;2023-07-29T12:12:06;1.17;;;1.08;;
9445;SDS011;4761;49.490;10.908;2023-07-29T12:14:32;1.05;;;0.90;;
9445;SDS011;4761;49.490;10.908;2023-07-29T12:16:59;1.77;;;1.30;;
9445;SDS011;4761;49.490;10.908;2023-07-29T12:19:33;1.08;;;1.00;;
9445;SDS011;4761;49.490;10.908;2023-07-29T12:22:03;1.10;;;0.90;;
9445;SDS011;4761;49.490;10.908;2023-07-29T12:24:30;1.00;;;0.90;;
9445;SDS011;4761;49.490;10.908;2023-07-29T12:26:56;1.02;;;0.90;;
9445;SDS011;4761;49.490;10.908;2023-07-29T12:29:22;1.00;;;1.00;;
9445;SDS011;4761;49.490;10.908;2023-07-29T12:31:48;1.08;;;1.00;;
9445;SDS011;4761;49.490;10.908;2023-07-29T12:34:21;1.42;;;1.08;;
9445;SDS011;4761;49.490;10.908;2023-07-29T12:36:48;0.88;;;0.88;;
9445;SDS011;4761;49.490;10.908;2023-07-29T12:39:22;0.98;;;0.90;;
9445;SDS011;4761;49.490;10.908;2023-07-29T12:41:50;1.02;;;0.93;;
9445;SDS011;4761;49.490;10.908;2023-07-29T12:44:17;1.17;;;1.00;;
9445;SDS011;4761;49.490;10.908;2023-07-29T12:46:43;0.88;;;0.88;;
9445;SDS011;4761;49.490;10.908;2023-07-29T12:49:09;1.02;;;0.90;;
9445;SDS011;4761;49.490;10.908;2023-07-29T12:51:34;7.28;;;1.15;;
9445;SDS011;4761;49.490;10.908;2023-07-29T12:54:01;2.40;;;1.13;;
9445;SDS011;4761;49.490;10.908;2023-07-29T12:56:27;2.45;;;1.17;;
9445;SDS011;4761;49.490;10.908;2023-07-29T12:58:53;1.77;;;1.20;;
9445;SDS011;4761;49.490;10.908;2023-07-29T13:01:19;1.65;;;1.13;;
9445;SDS011;4761;49.490;10.908;2023-07-29T13:03:44;3.53;;;1.13;;
9445;SDS011;4761;49.490;10.908;2023-07-29T13:06:10;1.45;;;1.00;;
9445;SDS011;4761;49.490;10.908;2023-07-29T13:08:36;2.40;;;1.20;;
9445;SDS011;4761;49.490;10.908;2023-07-29T13:11:02;1.00;;;0.90;;
9445;SDS011;4761;49.490;10.908;2023-07-29T13:13:28;2.13;;;0.90;;
9445;SDS011;4761;49.490;10.908;2023-07-29T13:15:54;3.65;;;1.23;;
9445;SDS011;4761;49.490;10.908;2023-07-29T13:18:20;2.70;;;1.35;;
9445;SDS011;4761;49.490;10.908;2023-07-29T13:20:46;2.33;;;1.30;;
9445;SDS011;4761;49.490;10.908;2023-07-29T13:23:12;1.45;;;1.33;;
9445;SDS011;4761;49.490;10.908;2023-07-29T13:25:37;1.65;;;1.30;;
9445;SDS011;4761;49.490;10.908;2023-07-29T13:28:03;1.60;;;1.23;;
9445;SDS011;4761;49.490;10.908;2023-07-29T13:30:29;2.75;;;1.52;;
9445;SDS011;4761;49.490;10.908;2023-07-29T13:32:54;2.25;;;1.27;;
9445;SDS011;4761;49.490;10.908;2023-07-29T13:35:20;1.10;;;1.10;;
9445;SDS011;4761;49.490;10.908;2023-07-29T13:37:45;1.73;;;1.23;;
9445;SDS011;4761;49.490;10.908;2023-07-29T13:40:11;1.25;;;1.10;;
9445;SDS011;4761;49.490;10.908;2023-07-29T13:42:36;1.38;;;1.17;;
9445;SDS011;4761;49.490;10.908;2023-07-29T13:45:02;1.52;;;1.23;;
9445;SDS011;4761;49.490;10.908;2023-07-29T13:47:28;2.30;;;1.27;;
9445;SDS011;4761;49.490;10.908;2023-07-29T13:49:53;1.83;;;1.23;;
9445;SDS011;4761;49.490;10.908;2023-07-29T13:52:19;1.50;;;1.20;;
9445;SDS011;4761;49.490;10.908;2023-07-29T13:54:44;2.10;;;1.33;;
9445;SDS011;4761;49.490;10.908;2023-07-29T13:57:10;1.33;;;1.13;;
9445;SDS011;4761;49.490;10.908;2023-07-29T13:59:36;1.65;;;1.35;;
9445;SDS011;4761;49.490;10.908;2023-07-29T14:02:03;1.25;;;1.15;;
9445;SDS011;4761;49.490;10.908;2023-07-29T14:04:30;2.20;;;1.10;;
9445;SDS011;4761;49.490;10.908;2023-07-29T14:06:56;1.52;;;1.17;;
9445;SDS011;4761;49.490;10.908;2023-07-29T14:09:22;1.63;;;1.27;;
9445;SDS011;4761;49.490;10.908;2023-07-29T14:11:47;1.73;;;1.40;;
9445;SDS011;4761;49.490;10.908;2023-07-29T14:14:13;2.80;;;1.27;;
9445;SDS011;4761;49.490;10.908;2023-07-29T14:16:38;1.52;;;1.20;;
9445;SDS011;4761;49.490;10.908;2023-07-29T14:19:04;2.65;;;1.38;;
9445;SDS011;4761;49.490;10.908;2023-07-29T14:21:29;1.73;;;1.35;;
9445;SDS011;4761;49.490;10.908;2023-07-29T14:23:55;2.42;;;1.42;;
9445;SDS011;4761;49.490;10.908;2023-07-29T14:26:20;2.47;;;1.40;;
9445;SDS011;4761;49.490;10.908;2023-07-29T14:28:46;3.10;;;1.65;;
9445;SDS011;4761;49.490;10.908;2023-07-29T14:31:11;2.10;;;1.40;;
9445;SDS011;4761;49.490;10.908;2023-07-29T14:33:38;2.75;;;1.20;;
9445;SDS011;4761;49.490;10.908;2023-07-29T14:36:03;2.20;;;1.33;;
9445;SDS011;4761;49.490;10.908;2023-07-29T14:38:29;1.20;;;1.10;;
9445;SDS011;4761;49.490;10.908;2023-07-29T14:40:55;2.10;;;1.48;;
9445;SDS011;4761;49.490;10.908;2023-07-29T14:43:21;2.85;;;1.77;;
9445;SDS011;4761;49.490;10.908;2023-07-29T14:45:48;1.52;;;1.42;;
9445;SDS011;4761;49.490;10.908;2023-07-29T14:48:14;2.38;;;1.48;;
9445;SDS011;4761;49.490;10.908;2023-07-29T14:50:39;1.30;;;1.15;;
9445;SDS011;4761;49.490;10.908;2023-07-29T14:53:05;1.80;;;1.23;;
9445;SDS011;4761;49.490;10.908;2023-07-29T14:55:30;1.30;;;1.20;;
9445;SDS011;4761;49.490;10.908;2023-07-29T14:57:56;2.15;;;1.20;;
9445;SDS011;4761;49.490;10.908;2023-07-29T15:00:21;2.10;;;1.17;;
9445;SDS011;4761;49.490;10.908;2023-07-29T15:02:47;1.40;;;1.10;;
9445;SDS011;4761;49.490;10.908;2023-07-29T15:05:12;1.20;;;1.10;;
9445;SDS011;4761;49.490;10.908;2023-07-29T15:07:38;2.78;;;1.45;;
9445;SDS011;4761;49.490;10.908;2023-07-29T15:10:04;2.33;;;1.35;;
9445;SDS011;4761;49.490;10.908;2023-07-29T15:12:29;2.25;;;1.40;;